Time;durP1;ratioP1;P1;durP2;ratioP2;P2;SDS_P1;SDS_P2;PMS_P1;PMS_P2;Temp;Humidity;BMP_temperature;BMP_pressure;BME280_temperature;BME280_humidity;BME280_pressure;Samples;Min_cycle;Max_cycle;Signal;HPM_P1;HPM_P2
2020/12/13 00:02:08;;;;;;;19.97;11.10;;;2.70;99.90;;;;;;5017772;28;20189;-80
2020/12/13 00:04:37;;;;;;;21.07;12.00;;;2.70;99.90;;;;;;5018427;28;20204;-80
2020/12/13 00:07:06;;;;;;;21.17;12.20;;;2.60;99.90;;;;;;5018351;28;20228;-79
2020/12/13 00:09:33;;;;;;;22.50;12.37;;;2.70;99.90;;;;;;5018268;28;20671;-79
2020/12/13 00:12:07;;;;;;;20.17;11.40;;;2.70;99.90;;;;;;5017930;28;20200;-79
2020/12/13 00:14:35;;;;;;;20.03;11.03;;;2.60;99.90;;;;;;5018787;28;20224;-80
2020/12/13 00:17:02;;;;;;;26.17;13.47;;;2.60;99.90;;;;;;5019203;28;20204;-79
2020/12/13 00:19:29;;;;;;;22.97;12.20;;;2.60;99.90;;;;;;5020241;28;20213;-80
2020/12/13 00:21:56;;;;;;;26.77;13.07;;;2.60;99.90;;;;;;5019386;28;20209;-80
2020/12/13 00:24:23;;;;;;;24.27;11.87;;;2.60;99.90;;;;;;5018863;28;20209;-80
2020/12/13 00:26:50;;;;;;;25.57;12.50;;;2.60;99.90;;;;;;5016836;28;20224;-78
2020/12/13 00:29:17;;;;;;;24.80;11.63;;;2.60;99.90;;;;;;5013352;28;20572;-80
2020/12/13 00:31:44;;;;;;;19.87;11.80;;;2.60;99.90;;;;;;5012954;28;20241;-79
2020/12/13 00:34:11;;;;;;;25.43;12.07;;;2.60;99.90;;;;;;5014854;28;20211;-80
2020/12/13 00:36:37;;;;;;;26.43;12.60;;;2.60;99.90;;;;;;5005737;28;20236;-79
2020/12/13 00:39:04;;;;;;;21.17;11.47;;;2.60;99.90;;;;;;4989811;28;20210;-79
2020/12/13 00:41:32;;;;;;;17.83;10.87;;;2.60;99.90;;;;;;4989921;28;20236;-79
2020/12/13 00:43:59;;;;;;;21.60;11.17;;;2.60;99.90;;;;;;4990517;28;20225;-78
2020/12/13 00:46:27;;;;;;;22.70;11.17;;;2.60;99.90;;;;;;4989030;28;20284;-78
2020/12/13 00:48:54;;;;;;;19.83;10.97;;;2.60;99.90;;;;;;4989522;28;20206;-78
2020/12/13 00:51:27;;;;;;;22.53;12.33;;;2.60;99.90;;;;;;4989093;28;20208;-78
2020/12/13 00:53:53;;;;;;;20.07;11.60;;;2.60;99.90;;;;;;4988848;28;20202;-79
2020/12/13 00:56:20;;;;;;;22.30;12.97;;;2.60;99.90;;;;;;4989052;28;20260;-78
2020/12/13 00:58:47;;;;;;;25.70;12.63;;;2.70;99.90;;;;;;4989005;28;20209;-78
2020/12/13 01:01:14;;;;;;;22.30;11.93;;;2.60;99.90;;;;;;4964636;28;767942;-78
2020/12/13 01:03:41;;;;;;;24.47;11.87;;;2.60;99.90;;;;;;4995904;28;20299;-78
2020/12/13 01:06:07;;;;;;;23.50;11.70;;;2.60;99.90;;;;;;5009221;28;20627;-78
2020/12/13 01:08:34;;;;;;;23.20;12.03;;;2.60;99.90;;;;;;5010039;28;20946;-79
2020/12/13 01:11:00;;;;;;;23.17;12.40;;;2.60;99.90;;;;;;5016152;28;20260;-79
2020/12/13 01:13:27;;;;;;;16.73;10.90;;;2.60;99.90;;;;;;5014606;28;20584;-78
2020/12/13 01:15:58;;;;;;;23.00;11.83;;;2.60;99.90;;;;;;5015090;28;20269;-79
2020/12/13 01:18:25;;;;;;;25.07;12.17;;;2.70;99.90;;;;;;5015048;28;20472;-78
2020/12/13 01:20:55;;;;;;;24.73;12.57;;;2.70;99.90;;;;;;5015128;28;20619;-80
2020/12/13 01:23:22;;;;;;;23.13;11.20;;;2.60;99.90;;;;;;5016030;28;20255;-79
2020/12/13 01:25:49;;;;;;;25.20;12.17;;;2.60;99.90;;;;;;5014844;28;20220;-78
2020/12/13 01:28:15;;;;;;;23.37;11.30;;;2.60;99.90;;;;;;5015321;28;20737;-79
2020/12/13 01:30:42;;;;;;;26.87;13.10;;;2.60;99.90;;;;;;5016351;28;20231;-80
2020/12/13 01:33:09;;;;;;;22.00;11.93;;;2.60;99.90;;;;;;5015962;28;20207;-79
2020/12/13 01:35:36;;;;;;;21.63;11.87;;;2.60;99.90;;;;;;5015956;28;20232;-79
2020/12/13 01:38:02;;;;;;;26.27;12.67;;;2.60;99.90;;;;;;5015828;28;20686;-79
2020/12/13 01:40:29;;;;;;;27.87;13.00;;;2.60;99.90;;;;;;5016324;28;20530;-80
2020/12/13 01:42:56;;;;;;;25.77;13.10;;;2.60;99.90;;;;;;5016262;28;20216;-80
2020/12/13 01:45:22;;;;;;;25.60;12.93;;;2.60;99.90;;;;;;5016157;28;20204;-80
2020/12/13 01:47:51;;;;;;;25.03;13.00;;;2.60;99.90;;;;;;5016297;28;20197;-80
2020/12/13 01:50:39;;;;;;;22.97;12.87;;;2.60;99.90;;;;;;5015216;28;20193;-80
2020/12/13 01:53:18;;;;;;;23.43;12.60;;;2.60;99.90;;;;;;5014775;28;20693;-80
2020/12/13 01:55:47;;;;;;;22.77;12.03;;;2.70;99.90;;;;;;5014972;28;20193;-79
2020/12/13 01:58:20;;;;;;;24.00;12.17;;;2.60;99.90;;;;;;5015932;28;20607;-79
2020/12/13 02:00:50;;;;;;;28.67;13.47;;;2.70;99.90;;;;;;5014952;28;20237;-80
2020/12/13 02:03:23;;;;;;;24.03;13.07;;;2.70;99.90;;;;;;5015634;28;20201;-78
2020/12/13 02:06:06;;;;;;;25.87;13.03;;;2.70;99.90;;;;;;5015650;28;20292;-79
2020/12/13 02:08:41;;;;;;;27.83;12.90;;;2.70;99.90;;;;;;5013039;28;20177;-79
2020/12/13 02:11:11;;;;;;;22.43;11.37;;;2.70;99.90;;;;;;5013814;28;20212;-79
2020/12/13 02:13:38;;;;;;;23.87;11.73;;;2.70;99.90;;;;;;5013474;28;20201;-78
2020/12/13 02:16:07;;;;;;;27.57;12.70;;;2.70;99.90;;;;;;5013054;28;20685;-78
2020/12/13 02:18:34;;;;;;;22.97;12.73;;;2.70;99.90;;;;;;5016305;28;20209;-79
2020/12/13 02:21:02;;;;;;;31.13;13.80;;;2.60;99.90;;;;;;5014264;28;20209;-79
2020/12/13 02:23:29;;;;;;;29.10;14.27;;;2.60;99.90;;;;;;5014328;28;20208;-80
2020/12/13 02:25:56;;;;;;;27.90;14.33;;;2.60;99.90;;;;;;5014997;28;20279;-80
2020/12/13 02:28:23;;;;;;;29.73;13.90;;;2.60;99.90;;;;;;5016728;28;20240;-79
2020/12/13 02:30:52;;;;;;;29.47;14.83;;;2.70;99.90;;;;;;5013708;28;20201;-78
2020/12/13 02:33:19;;;;;;;29.17;14.83;;;2.60;99.90;;;;;;5014420;28;20240;-79
2020/12/13 02:35:45;;;;;;;29.77;15.13;;;2.60;99.90;;;;;;5014372;28;20642;-79
2020/12/13 02:38:12;;;;;;;31.70;17.40;;;2.60;99.90;;;;;;5014396;28;20640;-80
2020/12/13 02:40:39;;;;;;;37.00;16.93;;;2.60;99.90;;;;;;5015297;28;20596;-80
2020/12/13 02:43:05;;;;;;;33.93;17.13;;;2.60;99.90;;;;;;5015128;28;20262;-79
2020/12/13 02:45:32;;;;;;;36.40;16.27;;;2.60;99.90;;;;;;5014041;28;20283;-79
2020/12/13 02:47:59;;;;;;;36.93;19.37;;;2.60;99.90;;;;;;5015206;28;20236;-78
2020/12/13 02:50:25;;;;;;;35.63;17.90;;;2.60;99.90;;;;;;5015235;28;20205;-78
2020/12/13 02:52:52;;;;;;;35.07;17.63;;;2.60;99.90;;;;;;5015261;28;20220;-80
2020/12/13 02:55:19;;;;;;;31.93;17.40;;;2.60;99.90;;;;;;5015318;28;20196;-78
2020/12/13 02:57:45;;;;;;;35.57;18.17;;;2.50;99.90;;;;;;5015482;28;20636;-80
2020/12/13 03:00:12;;;;;;;35.63;18.20;;;2.50;99.90;;;;;;5014778;28;20224;-80
2020/12/13 03:02:39;;;;;;;29.00;15.67;;;2.60;99.90;;;;;;5015237;28;20231;-79
2020/12/13 03:05:06;;;;;;;33.83;17.90;;;2.60;99.90;;;;;;5016029;28;20652;-80
2020/12/13 03:07:32;;;;;;;32.53;17.23;;;2.60;99.90;;;;;;5015952;28;20248;-80
2020/12/13 03:09:59;;;;;;;32.73;16.37;;;2.60;99.90;;;;;;5016423;28;20197;-80
2020/12/13 03:12:25;;;;;;;37.77;18.27;;;2.60;99.90;;;;;;5016551;28;20559;-79
2020/12/13 03:14:55;;;;;;;36.27;18.00;;;2.60;99.90;;;;;;5016192;28;20614;-80
2020/12/13 03:17:22;;;;;;;34.63;17.63;;;2.60;99.90;;;;;;5016708;28;20197;-80
2020/12/13 03:19:49;;;;;;;34.43;16.87;;;2.60;99.90;;;;;;5016817;28;20209;-80
2020/12/13 03:22:15;;;;;;;40.70;19.93;;;2.60;99.90;;;;;;5017277;28;20205;-80
2020/12/13 03:24:42;;;;;;;33.50;17.67;;;2.60;99.90;;;;;;5017629;28;20209;-80
2020/12/13 03:27:09;;;;;;;38.63;19.33;;;2.60;99.90;;;;;;5018062;28;20240;-80
2020/12/13 03:29:36;;;;;;;32.87;16.50;;;2.60;99.90;;;;;;5016875;28;20213;-79
2020/12/13 03:32:03;;;;;;;36.20;18.27;;;2.60;99.90;;;;;;5017589;28;20667;-81
2020/12/13 03:34:30;;;;;;;31.97;16.90;;;2.60;99.90;;;;;;5013549;28;20263;-80
2020/12/13 03:36:56;;;;;;;32.37;16.57;;;2.60;99.90;;;;;;5014710;28;20347;-79
2020/12/13 03:39:23;;;;;;;32.83;17.10;;;2.60;99.90;;;;;;5013467;28;20196;-80
2020/12/13 03:41:49;;;;;;;32.20;16.97;;;2.60;99.90;;;;;;5015660;28;20205;-80
2020/12/13 03:44:16;;;;;;;34.27;17.03;;;2.60;99.90;;;;;;5013807;28;20204;-80
2020/12/13 03:46:43;;;;;;;33.33;17.40;;;2.60;99.90;;;;;;5014198;28;20233;-80
2020/12/13 03:49:09;;;;;;;33.07;16.40;;;2.60;99.90;;;;;;5014263;28;20201;-80
2020/12/13 03:51:36;;;;;;;34.27;16.83;;;2.60;99.90;;;;;;5014519;28;20610;-80
2020/12/13 03:54:03;;;;;;;28.90;16.30;;;2.60;99.90;;;;;;5016792;28;20197;-80
2020/12/13 03:56:29;;;;;;;30.20;14.73;;;2.60;99.90;;;;;;5013956;28;20663;-80
2020/12/13 03:58:56;;;;;;;32.47;16.50;;;2.60;99.90;;;;;;5015616;28;20705;-79
2020/12/13 04:01:22;;;;;;;32.60;16.77;;;2.60;99.90;;;;;;5016172;28;20259;-80
2020/12/13 04:03:49;;;;;;;27.40;14.67;;;2.60;99.90;;;;;;5014633;28;20213;-80
2020/12/13 04:06:16;;;;;;;30.40;15.70;;;2.60;99.90;;;;;;5014359;28;20639;-80
2020/12/13 04:08:43;;;;;;;27.70;15.07;;;2.60;99.90;;;;;;5017277;28;20236;-80
2020/12/13 04:11:11;;;;;;;24.93;14.80;;;2.60;99.90;;;;;;5016087;28;20193;-80
2020/12/13 04:13:38;;;;;;;29.30;16.63;;;2.60;99.90;;;;;;5019000;28;20737;-80
2020/12/13 04:16:04;;;;;;;25.73;14.33;;;2.60;99.90;;;;;;5021277;28;20236;-80
2020/12/13 04:18:31;;;;;;;31.17;16.53;;;2.60;99.90;;;;;;5019861;28;20295;-79
2020/12/13 04:20:58;;;;;;;25.07;15.03;;;2.60;99.90;;;;;;5020820;28;20236;-80
2020/12/13 04:23:25;;;;;;;27.37;15.97;;;2.60;99.90;;;;;;5019506;28;20213;-80
2020/12/13 04:25:52;;;;;;;25.17;15.23;;;2.60;99.90;;;;;;5026503;28;20224;-80
2020/12/13 04:28:19;;;;;;;27.53;15.00;;;2.60;99.90;;;;;;5041001;28;20200;-80
2020/12/13 04:30:47;;;;;;;28.17;15.47;;;2.50;99.90;;;;;;5038056;28;20213;-80
2020/12/13 04:33:14;;;;;;;32.63;16.50;;;2.60;99.90;;;;;;5028107;28;20200;-80
2020/12/13 04:35:40;;;;;;;29.03;15.53;;;2.60;99.90;;;;;;5010515;28;20201;-79
2020/12/13 04:38:08;;;;;;;28.10;15.80;;;2.60;99.90;;;;;;5009245;28;20414;-79
2020/12/13 04:40:35;;;;;;;27.27;15.17;;;2.60;99.90;;;;;;5009690;28;20196;-79
2020/12/13 04:43:03;;;;;;;25.53;15.07;;;2.60;99.90;;;;;;5009200;28;20205;-79
2020/12/13 04:45:30;;;;;;;30.00;17.33;;;2.60;99.90;;;;;;5021382;28;20692;-80
2020/12/13 04:48:05;;;;;;;27.27;15.43;;;2.60;99.90;;;;;;5021604;28;20236;-80
2020/12/13 04:50:35;;;;;;;28.63;15.07;;;2.60;99.90;;;;;;5020730;28;20193;-81
2020/12/13 04:53:09;;;;;;;28.67;16.00;;;2.60;99.90;;;;;;5020808;28;20201;-80
2020/12/13 04:55:57;;;;;;;28.03;16.03;;;2.60;99.90;;;;;;5021389;28;20201;-80
2020/12/13 04:58:27;;;;;;;25.53;15.07;;;2.60;99.90;;;;;;5022311;28;20216;-81
2020/12/13 05:00:59;;;;;;;28.73;15.83;;;2.60;99.90;;;;;;5021943;28;20262;-80
2020/12/13 05:03:28;;;;;;;27.53;15.53;;;2.60;99.90;;;;;;5022942;28;20209;-79
2020/12/13 05:05:58;;;;;;;26.17;15.30;;;2.60;99.90;;;;;;5013669;28;20240;-79
2020/12/13 05:08:26;;;;;;;35.13;16.93;;;2.60;99.90;;;;;;5010100;28;20589;-79
2020/12/13 05:10:54;;;;;;;28.47;15.23;;;2.60;99.90;;;;;;5009624;28;20658;-79
2020/12/13 05:13:20;;;;;;;32.57;16.17;;;2.60;99.90;;;;;;5010500;28;20205;-79
2020/12/13 05:15:48;;;;;;;29.47;16.53;;;2.60;99.90;;;;;;5009656;28;20201;-79
2020/12/13 05:18:15;;;;;;;29.27;15.40;;;2.60;99.90;;;;;;5009312;28;20197;-79
2020/12/13 05:20:43;;;;;;;29.67;15.97;;;2.60;99.90;;;;;;5011980;28;20244;-80
2020/12/13 05:23:10;;;;;;;30.00;17.53;;;2.60;99.90;;;;;;5014892;28;20211;-79
2020/12/13 05:25:39;;;;;;;29.80;15.53;;;2.60;99.90;;;;;;5014457;28;20631;-80
2020/12/13 05:28:11;;;;;;;28.03;16.10;;;2.60;99.90;;;;;;5015098;28;20793;-79
2020/12/13 05:30:45;;;;;;;27.80;16.40;;;2.60;99.90;;;;;;5016987;28;20582;-79
2020/12/13 05:33:38;;;;;;;24.13;15.00;;;2.60;99.90;;;;;;5015634;28;20193;-79
2020/12/13 05:36:04;;;;;;;29.73;16.47;;;2.60;99.90;;;;;;5017017;28;20300;-80
2020/12/13 05:38:36;;;;;;;25.37;15.83;;;2.60;99.90;;;;;;5016009;28;20201;-79
2020/12/13 05:41:05;;;;;;;29.43;17.47;;;2.60;99.90;;;;;;5015861;28;20239;-79
2020/12/13 05:43:36;;;;;;;26.70;16.00;;;2.60;99.90;;;;;;5015483;28;20212;-80
2020/12/13 05:53:44;;;;;;;24.63;15.30;;;2.50;99.90;;;;;;5017432;28;20274;-81
2020/12/13 05:56:22;;;;;;;29.23;17.70;;;2.50;99.90;;;;;;5015850;28;20188;-79
2020/12/13 05:58:52;;;;;;;30.03;17.17;;;2.50;99.90;;;;;;5015589;28;20211;-79
2020/12/13 06:01:24;;;;;;;28.77;17.17;;;2.40;99.90;;;;;;5016528;28;20225;-80
2020/12/13 06:03:53;;;;;;;28.93;17.07;;;2.40;99.90;;;;;;5018179;28;20218;-79
2020/12/13 06:06:25;;;;;;;28.07;16.90;;;2.40;99.90;;;;;;5018389;28;20248;-80
2020/12/13 06:09:10;;;;;;;26.40;15.87;;;2.40;99.90;;;;;;5016275;28;20185;-80
2020/12/13 06:11:48;;;;;;;27.67;16.80;;;2.30;99.90;;;;;;5016253;28;20201;-80
2020/12/13 06:14:20;;;;;;;26.63;16.80;;;2.30;99.90;;;;;;5016791;28;20216;-80
2020/12/13 06:16:49;;;;;;;29.17;17.30;;;2.30;99.90;;;;;;5017423;28;20243;-79
2020/12/13 06:19:20;;;;;;;29.20;17.40;;;2.30;99.90;;;;;;5016821;28;20205;-80
2020/12/13 06:21:48;;;;;;;28.80;17.80;;;2.30;99.90;;;;;;5017573;28;20232;-80
2020/12/13 06:24:16;;;;;;;23.13;15.10;;;2.30;99.90;;;;;;5017372;28;20227;-80
2020/12/13 06:26:44;;;;;;;29.03;18.00;;;2.30;99.90;;;;;;5017919;28;20219;-80
2020/12/13 06:29:11;;;;;;;26.83;16.53;;;2.30;99.90;;;;;;5017767;28;20200;-81
2020/12/13 06:31:39;;;;;;;26.53;17.70;;;2.30;99.90;;;;;;5017800;28;20201;-80
2020/12/13 06:34:07;;;;;;;32.37;19.60;;;2.30;99.90;;;;;;5019084;28;20213;-80
2020/12/13 06:36:36;;;;;;;31.00;19.43;;;2.30;99.90;;;;;;5020024;28;20234;-79
2020/12/13 06:39:21;;;;;;;27.57;16.93;;;2.30;99.90;;;;;;5015515;28;20205;-80
2020/12/13 06:41:54;;;;;;;27.37;16.33;;;2.30;99.90;;;;;;5014395;28;20236;-79
2020/12/13 06:44:22;;;;;;;29.30;16.57;;;2.40;99.90;;;;;;5014504;28;20780;-80
2020/12/13 06:46:49;;;;;;;31.97;18.53;;;2.40;99.90;;;;;;5016517;28;20621;-79
2020/12/13 06:49:17;;;;;;;28.50;17.43;;;2.30;99.90;;;;;;5014437;28;20205;-80
2020/12/13 06:51:45;;;;;;;28.83;17.47;;;2.40;99.90;;;;;;5016602;28;20531;-80
2020/12/13 06:54:15;;;;;;;28.77;17.93;;;2.40;99.90;;;;;;5016474;28;20384;-80
2020/12/13 06:56:45;;;;;;;29.00;17.23;;;2.40;99.90;;;;;;5014643;28;20200;-80
2020/12/13 06:59:11;;;;;;;27.33;16.83;;;2.40;99.90;;;;;;5014187;28;20220;-79
2020/12/13 07:01:41;;;;;;;28.07;16.07;;;2.40;99.90;;;;;;5015250;28;20961;-81
2020/12/13 07:04:39;;;;;;;25.73;16.53;;;2.40;99.90;;;;;;5015643;28;20552;-80
2020/12/13 07:07:15;;;;;;;27.90;16.80;;;2.40;99.90;;;;;;5015690;28;20217;-79
2020/12/13 07:09:42;;;;;;;29.10;17.23;;;2.40;99.90;;;;;;5014853;28;20189;-80
2020/12/13 07:12:10;;;;;;;30.73;16.93;;;2.40;99.90;;;;;;5015140;28;20193;-80
2020/12/13 07:14:41;;;;;;;28.60;17.37;;;2.50;99.90;;;;;;5016027;28;20611;-80
2020/12/13 07:17:15;;;;;;;31.30;18.47;;;2.50;99.90;;;;;;5017232;28;20193;-79
2020/12/13 07:19:46;;;;;;;32.33;19.70;;;2.50;99.90;;;;;;5015320;28;20579;-80
2020/12/13 07:22:15;;;;;;;29.13;18.40;;;2.50;99.90;;;;;;5016245;28;20219;-79
2020/12/13 07:24:43;;;;;;;33.67;19.77;;;2.60;99.90;;;;;;5016339;28;20205;-80
2020/12/13 07:27:10;;;;;;;34.63;21.07;;;2.60;99.90;;;;;;5016920;28;20223;-80
2020/12/13 07:29:38;;;;;;;27.07;16.53;;;2.60;99.90;;;;;;5017808;28;20205;-79
2020/12/13 07:32:06;;;;;;;35.67;19.07;;;2.60;99.90;;;;;;5017694;28;20208;-80
2020/12/13 07:34:34;;;;;;;31.47;19.20;;;2.60;99.90;;;;;;5018066;28;20336;-80
2020/12/13 07:37:01;;;;;;;31.07;19.27;;;2.60;99.90;;;;;;5017201;28;20209;-80
2020/12/13 07:39:29;;;;;;;37.07;19.53;;;2.60;99.90;;;;;;5017471;28;20209;-80
2020/12/13 07:41:57;;;;;;;30.13;18.53;;;2.70;99.90;;;;;;5017454;28;20566;-80
2020/12/13 07:44:24;;;;;;;31.47;18.53;;;2.60;99.90;;;;;;5017385;28;20267;-81
2020/12/13 07:46:52;;;;;;;31.43;19.90;;;2.70;99.90;;;;;;5017623;28;20216;-81
2020/12/13 07:49:21;;;;;;;30.93;19.20;;;2.70;99.90;;;;;;5022166;28;20748;-79
2020/12/13 07:51:49;;;;;;;32.50;19.50;;;2.80;99.90;;;;;;5021908;28;20267;-80
2020/12/13 07:54:26;;;;;;;31.73;18.43;;;2.80;99.90;;;;;;5023363;28;20220;-79
2020/12/13 07:56:59;;;;;;;28.37;17.17;;;2.90;99.90;;;;;;5022199;28;20569;-80
2020/12/13 07:59:27;;;;;;;30.27;18.40;;;2.90;99.90;;;;;;5022130;28;20236;-81
2020/12/13 08:01:56;;;;;;;28.97;18.13;;;2.90;99.90;;;;;;5022377;28;20252;-80
2020/12/13 08:04:37;;;;;;;28.50;18.63;;;2.90;99.90;;;;;;5024776;28;20394;-80
2020/12/13 08:07:12;;;;;;;28.03;17.63;;;2.90;99.90;;;;;;5023682;28;20558;-81
2020/12/13 08:09:42;;;;;;;30.27;18.80;;;3.00;99.90;;;;;;5024532;28;20211;-79
2020/12/13 08:12:13;;;;;;;28.33;18.17;;;3.00;99.90;;;;;;5018531;28;20259;-80
2020/12/13 08:14:40;;;;;;;26.37;17.43;;;3.00;99.90;;;;;;5016346;28;20212;-79
2020/12/13 08:17:07;;;;;;;26.63;17.83;;;3.00;99.90;;;;;;5016119;28;20263;-79
2020/12/13 08:20:05;;;;;;;29.97;17.97;;;3.00;99.90;;;;;;5016835;28;20640;-79
2020/12/13 08:22:34;;;;;;;25.83;16.43;;;3.00;99.90;;;;;;4979664;28;20205;-81
2020/12/13 08:25:04;;;;;;;26.63;16.93;;;3.00;99.90;;;;;;4975085;28;20213;-80
2020/12/13 08:27:33;;;;;;;26.37;17.07;;;3.00;99.90;;;;;;4993802;28;20235;-80
2020/12/13 08:30:00;;;;;;;28.17;18.33;;;3.10;99.90;;;;;;4993254;28;20330;-79
2020/12/13 08:32:33;;;;;;;29.43;16.80;;;3.10;99.90;;;;;;4991883;28;20197;-79
2020/12/13 08:35:18;;;;;;;25.87;17.07;;;3.20;99.90;;;;;;4976094;28;20693;-79
2020/12/13 08:37:59;;;;;;;22.90;15.43;;;3.30;99.90;;;;;;4973532;28;20200;-79
2020/12/13 08:40:37;;;;;;;23.37;14.83;;;3.30;99.90;;;;;;4972501;28;20212;-79
2020/12/13 08:43:04;;;;;;;26.40;17.33;;;3.40;99.90;;;;;;4973204;28;20186;-79
2020/12/13 08:45:31;;;;;;;27.50;16.40;;;3.40;99.90;;;;;;4972641;28;20714;-79
2020/12/13 08:48:08;;;;;;;25.60;16.63;;;3.50;99.90;;;;;;4974077;28;20210;-79
2020/12/13 08:50:40;;;;;;;24.97;15.77;;;3.60;99.90;;;;;;4973055;28;20215;-79
2020/12/13 08:53:20;;;;;;;24.90;15.10;;;3.70;99.90;;;;;;4989009;28;20618;-79
2020/12/13 08:56:01;;;;;;;24.90;16.03;;;3.80;99.90;;;;;;4977587;28;20209;-79
2020/12/13 08:58:28;;;;;;;25.30;15.53;;;3.80;99.90;;;;;;4988967;28;20208;-79
2020/12/13 09:01:06;;;;;;;23.07;15.07;;;3.80;99.90;;;;;;5017457;28;20232;-79
2020/12/13 09:03:33;;;;;;;23.93;15.27;;;3.80;99.90;;;;;;5017890;28;20216;-79
2020/12/13 09:05:59;;;;;;;26.20;15.47;;;3.80;99.90;;;;;;5017591;28;20212;-79
2020/12/13 09:08:26;;;;;;;25.30;14.50;;;3.80;99.90;;;;;;5019477;28;20209;-80
2020/12/13 09:10:53;;;;;;;25.73;15.57;;;3.90;99.90;;;;;;5018091;28;20513;-80
2020/12/13 09:13:20;;;;;;;23.33;15.00;;;3.90;99.90;;;;;;5018934;28;20241;-79
2020/12/13 09:15:47;;;;;;;23.53;14.63;;;4.00;99.90;;;;;;5018381;28;20209;-81
2020/12/13 09:18:14;;;;;;;25.57;14.67;;;4.10;99.90;;;;;;5018263;28;20197;-80
2020/12/13 09:20:41;;;;;;;21.77;13.73;;;4.10;99.90;;;;;;5018061;28;20355;-80
2020/12/13 09:23:13;;;;;;;19.07;12.40;;;4.20;99.90;;;;;;5017763;28;20264;-81
2020/12/13 09:25:41;;;;;;;16.90;12.20;;;4.20;99.90;;;;;;5025020;28;20672;-80
2020/12/13 09:28:10;;;;;;;16.57;11.43;;;4.30;99.90;;;;;;5038577;28;20646;-79
2020/12/13 09:30:38;;;;;;;17.00;11.07;;;4.30;99.90;;;;;;5039364;28;20231;-80
2020/12/13 09:33:05;;;;;;;16.97;10.40;;;4.40;99.90;;;;;;5038065;28;20243;-80
2020/12/13 09:35:32;;;;;;;14.27;9.97;;;4.40;99.90;;;;;;5019363;28;20197;-79
2020/12/13 09:38:01;;;;;;;15.13;10.10;;;4.50;99.90;;;;;;5019572;28;20205;-79
2020/12/13 09:40:29;;;;;;;13.37;9.33;;;4.60;99.90;;;;;;5019621;28;20574;-80
2020/12/13 09:42:55;;;;;;;13.57;9.80;;;4.60;99.90;;;;;;5020311;28;20201;-81
2020/12/13 09:45:23;;;;;;;14.17;10.00;;;4.70;99.90;;;;;;5015951;28;20215;-79
2020/12/13 09:47:55;;;;;;;13.70;9.73;;;4.70;99.90;;;;;;5015326;28;20264;-80
2020/12/13 09:50:27;;;;;;;14.40;9.90;;;4.70;99.90;;;;;;5015013;28;20202;-80
2020/12/13 09:52:55;;;;;;;13.93;9.63;;;4.70;99.90;;;;;;5016205;28;20200;-80
2020/12/13 09:55:23;;;;;;;15.13;10.23;;;4.80;99.90;;;;;;5016638;28;20201;-80
2020/12/13 09:57:52;;;;;;;12.37;9.63;;;4.90;99.90;;;;;;5015714;28;20211;-79
2020/12/13 10:00:20;;;;;;;13.10;9.50;;;4.90;99.90;;;;;;5015045;28;20633;-80
2020/12/13 10:02:46;;;;;;;13.20;8.83;;;4.90;99.90;;;;;;5016434;28;20702;-79
2020/12/13 10:05:23;;;;;;;13.90;9.63;;;5.00;99.90;;;;;;5015470;28;20219;-80
2020/12/13 10:10:35;;;;;;;11.67;7.73;;;5.20;99.90;;;;;;5017511;28;20682;-80
2020/12/13 10:13:02;;;;;;;11.17;7.77;;;5.30;99.90;;;;;;5017557;28;20260;-80
2020/12/13 10:15:29;;;;;;;10.63;7.57;;;5.40;99.90;;;;;;5016022;28;20660;-80
2020/12/13 10:17:56;;;;;;;11.13;7.60;;;5.40;99.90;;;;;;5016321;28;20215;-79
2020/12/13 10:20:23;;;;;;;10.07;7.30;;;5.50;99.90;;;;;;5016871;28;20202;-81
2020/12/13 10:22:50;;;;;;;8.63;6.67;;;5.60;99.90;;;;;;5017729;28;20585;-79
2020/12/13 10:25:19;;;;;;;8.87;6.77;;;5.70;99.90;;;;;;5018707;28;20418;-80
2020/12/13 10:27:45;;;;;;;7.87;5.80;;;5.70;99.90;;;;;;5036504;28;20221;-80
2020/12/13 10:30:13;;;;;;;7.23;4.93;;;5.80;99.90;;;;;;5036574;28;20222;-80
2020/12/13 10:32:40;;;;;;;7.90;5.37;;;5.80;99.90;;;;;;5038292;28;20638;-79
2020/12/13 10:35:06;;;;;;;6.47;5.00;;;5.80;99.90;;;;;;5019522;28;20214;-80
2020/12/13 10:37:33;;;;;;;6.47;4.57;;;5.80;99.90;;;;;;5018335;28;20235;-80
2020/12/13 10:40:01;;;;;;;5.40;4.70;;;5.80;99.90;;;;;;5018144;28;20210;-81
2020/12/13 10:42:28;;;;;;;6.03;4.73;;;5.90;99.90;;;;;;5017501;28;20214;-80
2020/12/13 10:44:55;;;;;;;5.43;4.30;;;6.00;99.90;;;;;;5017997;28;20490;-80
2020/12/13 10:47:21;;;;;;;4.43;3.73;;;6.00;99.90;;;;;;5018111;28;20258;-80
2020/12/13 10:49:48;;;;;;;7.17;4.43;;;6.10;99.90;;;;;;5019033;28;20947;-80
2020/12/13 10:52:15;;;;;;;5.47;4.17;;;6.30;99.90;;;;;;5018336;28;20194;-80
2020/12/13 10:54:43;;;;;;;5.80;3.63;;;6.40;99.90;;;;;;5018900;28;20238;-80
2020/12/13 10:57:12;;;;;;;4.17;3.37;;;6.50;99.90;;;;;;5019624;28;20297;-80
2020/12/13 10:59:39;;;;;;;3.67;3.20;;;6.60;99.90;;;;;;5019036;28;20258;-81
2020/12/13 11:02:07;;;;;;;4.53;3.50;;;6.60;99.90;;;;;;5019479;28;20299;-80
2020/12/13 11:04:34;;;;;;;4.23;3.30;;;6.60;99.90;;;;;;5020106;28;20564;-81
2020/12/13 11:07:01;;;;;;;5.17;3.30;;;6.70;99.90;;;;;;5019088;28;20708;-81
2020/12/13 11:09:28;;;;;;;3.07;2.60;;;6.80;99.90;;;;;;5021270;28;20202;-80
2020/12/13 11:11:56;;;;;;;4.13;3.40;;;6.80;99.90;;;;;;5021996;28;20271;-80
2020/12/13 11:14:22;;;;;;;3.70;3.10;;;6.90;99.90;;;;;;5020433;28;20197;-80
2020/12/13 11:16:50;;;;;;;3.73;3.10;;;6.90;99.90;;;;;;5020838;28;20204;-79
2020/12/13 11:19:16;;;;;;;3.23;2.60;;;6.80;99.90;;;;;;5013076;28;20228;-79
2020/12/13 11:21:46;;;;;;;3.43;2.77;;;6.80;99.90;;;;;;5016294;28;20208;-81
2020/12/13 11:24:13;;;;;;;4.17;3.07;;;6.80;99.90;;;;;;5017360;28;20228;-80
2020/12/13 11:26:41;;;;;;;2.67;2.40;;;6.80;99.90;;;;;;5017575;28;20223;-80
2020/12/13 11:29:08;;;;;;;3.83;2.80;;;6.70;99.90;;;;;;5019577;28;20201;-80
2020/12/13 11:31:36;;;;;;;5.73;3.00;;;6.70;99.90;;;;;;5018024;28;20272;-80
2020/12/13 11:34:03;;;;;;;3.87;3.27;;;6.70;99.90;;;;;;5017457;28;20244;-80
2020/12/13 11:36:30;;;;;;;4.30;3.30;;;6.70;99.90;;;;;;5019262;28;20197;-79
2020/12/13 11:38:56;;;;;;;4.40;3.63;;;6.70;99.90;;;;;;5018634;28;20204;-80
2020/12/13 11:41:30;;;;;;;4.07;3.27;;;6.70;99.90;;;;;;5018175;28;20201;-80
2020/12/13 11:43:57;;;;;;;4.33;3.20;;;6.70;99.90;;;;;;5019285;28;20690;-80
2020/12/13 11:46:25;;;;;;;4.57;4.00;;;6.70;99.90;;;;;;5018324;28;20758;-80
2020/12/13 11:48:52;;;;;;;4.77;3.30;;;6.80;99.90;;;;;;5017993;28;20506;-80
2020/12/13 11:51:20;;;;;;;4.70;3.60;;;6.80;99.90;;;;;;5018005;28;20232;-79
2020/12/13 11:53:47;;;;;;;4.30;3.07;;;6.80;99.90;;;;;;5018345;28;20204;-79
2020/12/13 11:56:19;;;;;;;3.87;2.87;;;6.80;99.90;;;;;;5018632;28;20204;-81
2020/12/13 11:58:46;;;;;;;3.43;2.83;;;6.80;99.90;;;;;;5018637;28;20181;-79
2020/12/13 12:01:13;;;;;;;4.50;3.07;;;6.80;99.90;;;;;;5018659;28;20236;-80
2020/12/13 12:03:41;;;;;;;4.67;3.13;;;6.80;99.90;;;;;;5019064;28;20205;-80
2020/12/13 12:06:09;;;;;;;4.57;2.90;;;6.80;99.90;;;;;;5018644;28;20211;-80
2020/12/13 12:08:37;;;;;;;3.33;2.50;;;6.80;99.90;;;;;;5020651;28;20234;-80
2020/12/13 12:11:04;;;;;;;4.43;3.33;;;6.80;99.90;;;;;;5019191;28;20460;-80
2020/12/13 12:13:31;;;;;;;4.00;3.47;;;6.70;99.90;;;;;;5018795;28;20547;-80
2020/12/13 12:15:57;;;;;;;3.77;2.80;;;6.70;99.90;;;;;;5019717;28;20232;-79
2020/12/13 12:18:24;;;;;;;3.50;2.87;;;6.70;99.90;;;;;;5020084;28;20231;-80
2020/12/13 12:20:54;;;;;;;4.17;3.00;;;6.70;99.90;;;;;;5019474;28;20213;-80
2020/12/13 12:23:20;;;;;;;3.00;2.70;;;6.80;99.90;;;;;;5020096;28;20560;-80
2020/12/13 12:25:51;;;;;;;3.33;2.60;;;6.80;99.90;;;;;;5019027;28;20620;-80
2020/12/13 12:28:18;;;;;;;3.20;2.20;;;6.70;99.90;;;;;;5011325;28;20256;-80
2020/12/13 12:30:45;;;;;;;2.80;2.47;;;6.70;99.90;;;;;;5012567;28;20682;-79
2020/12/13 12:33:12;;;;;;;2.67;2.40;;;6.70;99.90;;;;;;5009938;28;20201;-79
2020/12/13 12:35:39;;;;;;;3.37;2.43;;;6.70;99.90;;;;;;5010199;28;20560;-80
2020/12/13 12:38:05;;;;;;;2.90;2.23;;;6.70;99.90;;;;;;4999473;28;20288;-80
2020/12/13 12:40:32;;;;;;;3.07;2.53;;;6.70;99.90;;;;;;5001293;28;20205;-80
2020/12/13 12:42:59;;;;;;;2.57;2.30;;;6.70;99.90;;;;;;5000960;28;20218;-80
2020/12/13 12:45:26;;;;;;;3.13;2.63;;;6.60;99.90;;;;;;5001057;28;20210;-80
2020/12/13 12:47:52;;;;;;;3.43;2.50;;;6.60;99.90;;;;;;5001549;28;20224;-80
2020/12/13 12:50:19;;;;;;;3.33;2.27;;;6.60;99.90;;;;;;5001273;28;20755;-79
2020/12/13 12:52:46;;;;;;;3.07;2.50;;;6.50;99.90;;;;;;4990599;28;20209;-79
2020/12/13 12:55:13;;;;;;;2.70;2.17;;;6.50;99.90;;;;;;4990005;28;20294;-79
2020/12/13 12:57:40;;;;;;;3.33;2.50;;;6.40;99.90;;;;;;4992222;28;20209;-79
2020/12/13 13:02:34;;;;;;;2.63;2.30;;;6.30;99.90;;;;;;4991615;28;20206;-79